Time;durP1;ratioP1;P1;durP2;ratioP2;P2;SDS_P1;SDS_P2;PMS_P1;PMS_P2;Temp;Humidity;BMP_temperature;BMP_pressure;BME280_temperature;BME280_humidity;BME280_pressure;Samples;Min_cycle;Max_cycle;Signal;HPM_P1;HPM_P2
2022/05/09 00:01:14;;;;;;;9.07;3.53;;;12.50;66.00;;;;;;5054758;28;20463;-92
2022/05/09 00:03:42;;;;;;;10.35;4.25;;;12.40;66.00;;;;;;5054747;28;20476;-91
2022/05/09 00:06:10;;;;;;;9.00;3.58;;;12.40;66.10;;;;;;5052799;28;20060;-91
2022/05/09 00:08:37;;;;;;;9.63;3.55;;;12.40;66.10;;;;;;5054313;28;20041;-93
2022/05/09 00:11:04;;;;;;;8.60;3.75;;;12.40;66.10;;;;;;5053927;28;20049;-93
2022/05/09 00:13:31;;;;;;;10.27;3.85;;;12.30;66.10;;;;;;5054440;28;20052;-92
2022/05/09 00:15:58;;;;;;;8.00;4.07;;;12.30;66.20;;;;;;5054812;28;20075;-92
2022/05/09 00:18:25;;;;;;;11.88;4.28;;;12.20;66.20;;;;;;5054012;28;20053;-92
2022/05/09 00:20:52;;;;;;;11.45;3.72;;;12.20;66.20;;;;;;5053040;28;20056;-92
2022/05/09 00:23:19;;;;;;;11.48;4.88;;;12.20;66.30;;;;;;5054277;28;20041;-91
2022/05/09 00:25:46;;;;;;;11.68;4.60;;;12.20;66.40;;;;;;5052843;28;20056;-91
2022/05/09 00:28:13;;;;;;;11.55;4.00;;;12.10;66.40;;;;;;5053401;28;20111;-92
2022/05/09 00:30:40;;;;;;;7.55;3.85;;;12.10;66.40;;;;;;5053461;28;20049;-92
2022/05/09 00:33:07;;;;;;;9.20;4.00;;;12.00;66.50;;;;;;5053073;28;20060;-93
2022/05/09 00:35:36;;;;;;;9.73;4.28;;;12.00;66.60;;;;;;5052841;28;20381;-92
2022/05/09 00:38:03;;;;;;;7.78;4.18;;;12.00;66.60;;;;;;5052598;28;20110;-92
2022/05/09 00:40:30;;;;;;;11.65;4.10;;;12.00;66.70;;;;;;5053533;28;20503;-91
2022/05/09 00:42:57;;;;;;;14.27;4.38;;;11.90;66.70;;;;;;5054419;28;20053;-91
2022/05/09 00:45:26;;;;;;;13.73;4.43;;;11.90;66.70;;;;;;5052713;28;20053;-93
2022/05/09 00:47:53;;;;;;;8.77;4.05;;;11.90;66.70;;;;;;5052949;28;20414;-92
2022/05/09 00:50:29;;;;;;;10.13;4.38;;;11.90;66.80;;;;;;5053672;28;20056;-93
2022/05/09 00:53:04;;;;;;;8.60;4.30;;;11.90;66.80;;;;;;5053613;28;20102;-93
2022/05/09 00:55:41;;;;;;;9.15;4.32;;;11.90;66.90;;;;;;5053276;28;20052;-93
2022/05/09 00:58:35;;;;;;;10.13;4.25;;;11.80;66.90;;;;;;5048706;28;20053;-93
2022/05/09 01:01:03;;;;;;;12.93;5.32;;;11.80;67.00;;;;;;5052314;28;20060;-92
2022/05/09 01:06:24;;;;;;;9.52;4.88;;;11.80;67.10;;;;;;5052988;28;20486;-92
2022/05/09 01:08:51;;;;;;;11.50;4.82;;;11.70;67.10;;;;;;5052004;28;20049;-93
2022/05/09 01:11:23;;;;;;;16.40;5.45;;;11.70;67.20;;;;;;5052419;28;20052;-93
2022/05/09 01:13:57;;;;;;;11.23;5.03;;;11.70;67.20;;;;;;5052459;28;20052;-92
2022/05/09 01:16:25;;;;;;;10.77;4.60;;;11.70;67.20;;;;;;5052274;28;20048;-93
2022/05/09 01:18:52;;;;;;;11.18;5.43;;;11.70;67.30;;;;;;5050896;28;20115;-93
2022/05/09 01:21:29;;;;;;;12.23;5.25;;;11.60;67.30;;;;;;5052206;28;20400;-92
2022/05/09 01:23:56;;;;;;;14.68;5.25;;;11.60;67.30;;;;;;5051670;28;20044;-91
2022/05/09 01:26:24;;;;;;;12.55;5.35;;;11.60;67.30;;;;;;5053576;28;20057;-91
2022/05/09 01:28:51;;;;;;;10.73;5.32;;;11.60;67.40;;;;;;5052158;28;20049;-92
2022/05/09 01:31:38;;;;;;;10.95;5.00;;;11.50;67.40;;;;;;5051973;28;20053;-93
2022/05/09 01:34:09;;;;;;;9.40;4.55;;;11.50;67.40;;;;;;5052560;28;20412;-91
2022/05/09 01:36:37;;;;;;;9.02;4.50;;;11.50;67.40;;;;;;5051379;28;20138;-93
2022/05/09 01:39:11;;;;;;;10.02;4.72;;;11.50;67.50;;;;;;5051650;28;20092;-93
2022/05/09 01:41:45;;;;;;;12.88;5.22;;;11.40;67.50;;;;;;5052650;28;20049;-93
2022/05/09 01:44:14;;;;;;;9.48;4.90;;;11.40;67.50;;;;;;5052485;28;20053;-92
2022/05/09 01:49:29;;;;;;;8.68;5.03;;;11.40;67.50;;;;;;5051522;28;20091;-91
2022/05/09 01:52:03;;;;;;;13.05;5.43;;;11.30;67.60;;;;;;5053180;28;20470;-92
2022/05/09 01:54:30;;;;;;;11.93;5.07;;;11.30;67.60;;;;;;5051742;28;20102;-93
2022/05/09 01:56:57;;;;;;;11.77;4.50;;;11.30;67.60;;;;;;5052563;28;20487;-92
2022/05/09 01:59:43;;;;;;;15.00;4.82;;;11.20;67.70;;;;;;5051250;28;20045;-93
2022/05/09 02:02:17;;;;;;;10.80;5.20;;;11.20;67.70;;;;;;5052494;28;20045;-92
2022/05/09 02:04:44;;;;;;;9.75;4.75;;;11.20;67.70;;;;;;5036147;28;20048;-91
2022/05/09 02:07:14;;;;;;;9.18;4.57;;;11.20;67.70;;;;;;5051823;28;20049;-92
2022/05/09 02:09:43;;;;;;;9.05;5.03;;;11.10;67.70;;;;;;5052505;28;20107;-93
2022/05/09 02:12:11;;;;;;;10.75;4.95;;;11.10;67.70;;;;;;5052319;28;20573;-92
2022/05/09 02:14:39;;;;;;;11.02;5.28;;;11.00;67.80;;;;;;5050936;28;20045;-92
2022/05/09 02:17:25;;;;;;;10.68;5.05;;;11.00;67.80;;;;;;5052147;28;20507;-92
2022/05/09 02:19:53;;;;;;;9.32;5.35;;;11.00;67.80;;;;;;5035920;28;20127;-93
2022/05/09 02:22:19;;;;;;;9.65;5.85;;;10.90;67.90;;;;;;5051386;28;20048;-93
2022/05/09 02:24:46;;;;;;;11.93;5.70;;;10.90;67.90;;;;;;5052597;28;20099;-93
2022/05/09 02:27:13;;;;;;;9.50;5.63;;;10.90;67.90;;;;;;5052198;28;20056;-94
2022/05/09 02:29:42;;;;;;;12.40;5.30;;;10.90;67.90;;;;;;5052032;28;20099;-94
2022/05/09 02:32:10;;;;;;;11.85;5.95;;;10.80;67.90;;;;;;5051972;28;20048;-91
2022/05/09 02:34:37;;;;;;;11.52;5.50;;;10.80;67.90;;;;;;5051469;28;20052;-92
2022/05/09 02:37:04;;;;;;;11.98;5.95;;;10.80;68.00;;;;;;5052532;28;20438;-91
2022/05/09 02:39:31;;;;;;;8.93;4.90;;;10.80;68.00;;;;;;5051945;28;20114;-93
2022/05/09 02:41:59;;;;;;;8.90;5.30;;;10.70;68.00;;;;;;5051634;28;20511;-93
2022/05/09 02:44:30;;;;;;;10.98;5.15;;;10.70;68.00;;;;;;5051966;28;20053;-93
2022/05/09 02:46:57;;;;;;;9.18;5.65;;;10.70;68.00;;;;;;5051221;28;20041;-92
2022/05/09 02:49:24;;;;;;;9.48;5.32;;;10.60;68.10;;;;;;5051667;28;20107;-92
2022/05/09 02:51:52;;;;;;;9.65;5.50;;;10.60;68.10;;;;;;5051454;28;20045;-91
2022/05/09 02:54:19;;;;;;;10.15;5.95;;;10.60;68.10;;;;;;5052026;28;20061;-91
2022/05/09 02:56:46;;;;;;;10.02;5.60;;;10.50;68.10;;;;;;5051917;28;20090;-93
2022/05/09 02:59:13;;;;;;;10.50;6.10;;;10.50;68.10;;;;;;5050749;28;20049;-93
2022/05/09 03:01:40;;;;;;;9.57;5.70;;;10.50;68.10;;;;;;5051082;28;20049;-92
2022/05/09 03:06:52;;;;;;;9.00;5.90;;;10.40;68.20;;;;;;5052238;28;20060;-93
2022/05/09 03:09:19;;;;;;;8.50;4.72;;;10.40;68.20;;;;;;5051790;28;20098;-91
2022/05/09 03:11:45;;;;;;;9.50;5.28;;;10.40;68.20;;;;;;5050817;28;20485;-94
2022/05/09 03:14:12;;;;;;;14.43;6.50;;;10.40;68.20;;;;;;5050510;28;20044;-92
2022/05/09 03:16:39;;;;;;;12.80;6.50;;;10.30;68.20;;;;;;5050430;28;20053;-92
2022/05/09 03:19:06;;;;;;;12.88;6.18;;;10.30;68.20;;;;;;5052035;28;20095;-94
2022/05/09 03:21:33;;;;;;;11.20;5.80;;;10.30;68.30;;;;;;5050387;28;20577;-93
2022/05/09 03:24:00;;;;;;;11.82;6.18;;;10.30;68.30;;;;;;5050764;28;20526;-93
2022/05/09 03:26:27;;;;;;;10.77;6.45;;;10.30;68.30;;;;;;5051416;28;20049;-93
2022/05/09 03:28:54;;;;;;;9.65;6.25;;;10.20;68.30;;;;;;5051285;28;20048;-93
2022/05/09 03:31:21;;;;;;;11.48;6.15;;;10.20;68.30;;;;;;5052970;28;20473;-92
2022/05/09 03:33:48;;;;;;;10.63;6.40;;;10.20;68.30;;;;;;5055558;28;20122;-91
2022/05/09 03:36:15;;;;;;;12.13;6.32;;;10.20;68.40;;;;;;5055148;28;20048;-93
2022/05/09 03:38:42;;;;;;;9.55;6.93;;;10.10;68.40;;;;;;5055084;28;20098;-91
2022/05/09 03:41:09;;;;;;;11.13;6.10;;;10.10;68.40;;;;;;5054289;28;20049;-91
2022/05/09 03:43:36;;;;;;;9.85;6.45;;;10.00;68.50;;;;;;5055252;28;20083;-93
2022/05/09 03:46:03;;;;;;;8.73;5.97;;;10.00;68.50;;;;;;5055834;28;20462;-93
2022/05/09 03:48:30;;;;;;;11.57;6.75;;;10.00;68.50;;;;;;5054672;28;20055;-92
2022/05/09 03:50:58;;;;;;;10.85;6.28;;;10.00;68.50;;;;;;5054863;28;20071;-90
2022/05/09 03:53:25;;;;;;;11.38;5.88;;;9.90;68.50;;;;;;5054743;28;20084;-93
2022/05/09 03:55:52;;;;;;;10.82;6.57;;;9.90;68.50;;;;;;5053806;28;20048;-92
2022/05/09 03:58:19;;;;;;;10.23;6.25;;;9.90;68.60;;;;;;5053967;28;20099;-93
2022/05/09 04:00:46;;;;;;;12.20;6.75;;;9.90;68.60;;;;;;5054268;28;20103;-93
2022/05/09 04:03:14;;;;;;;10.88;6.07;;;9.90;68.60;;;;;;5054500;28;20557;-92
2022/05/09 04:05:41;;;;;;;9.93;5.65;;;9.90;68.60;;;;;;5054544;28;20045;-92
2022/05/09 04:08:11;;;;;;;17.23;5.93;;;9.80;68.60;;;;;;5054521;28;20118;-93
2022/05/09 04:10:40;;;;;;;12.48;6.50;;;9.80;68.70;;;;;;5053435;28;20102;-91
2022/05/09 04:13:07;;;;;;;11.35;6.13;;;9.80;68.70;;;;;;5055192;28;20091;-92
2022/05/09 04:18:21;;;;;;;10.35;6.45;;;9.70;68.70;;;;;;5054279;28;20510;-92
2022/05/09 04:20:50;;;;;;;9.20;6.57;;;9.70;68.70;;;;;;5054075;28;20125;-91
2022/05/09 04:23:18;;;;;;;12.05;7.05;;;9.70;68.70;;;;;;5054223;28;20468;-91
2022/05/09 04:25:46;;;;;;;12.52;7.05;;;9.70;68.70;;;;;;5054295;28;20040;-92
2022/05/09 04:28:17;;;;;;;10.48;6.50;;;9.60;68.70;;;;;;5054009;28;20052;-92
2022/05/09 04:30:45;;;;;;;12.32;7.05;;;9.60;68.80;;;;;;5053268;28;20049;-94
2022/05/09 04:33:12;;;;;;;36.30;7.82;;;9.60;68.80;;;;;;5053089;28;20126;-93
2022/05/09 04:35:41;;;;;;;17.17;6.55;;;9.60;68.80;;;;;;5054152;28;20045;-93
2022/05/09 04:38:14;;;;;;;17.70;8.00;;;9.50;68.80;;;;;;5053928;28;20091;-92
2022/05/09 04:40:42;;;;;;;18.42;8.00;;;9.50;68.90;;;;;;5038206;28;20049;-93
2022/05/09 04:43:10;;;;;;;10.80;6.80;;;9.50;68.90;;;;;;5049161;28;20052;-92
2022/05/09 04:45:38;;;;;;;12.82;7.57;;;9.50;69.00;;;;;;5052904;28;20056;-94
2022/05/09 04:48:05;;;;;;;13.10;7.20;;;9.50;69.00;;;;;;5053146;28;20111;-93
2022/05/09 04:50:34;;;;;;;12.95;7.00;;;9.50;69.00;;;;;;5052935;28;20052;-92
2022/05/09 04:53:02;;;;;;;11.07;6.78;;;9.40;69.00;;;;;;5053046;28;20110;-92
2022/05/09 04:55:29;;;;;;;12.95;7.50;;;9.40;69.10;;;;;;5052687;28;20188;-91
2022/05/09 04:58:03;;;;;;;14.80;7.32;;;9.40;69.10;;;;;;5053627;28;20061;-92
2022/05/09 05:00:49;;;;;;;10.68;7.15;;;9.40;69.10;;;;;;5052599;28;20483;-94
2022/05/09 05:03:16;;;;;;;14.25;7.75;;;9.40;69.20;;;;;;5052543;28;20068;-91
2022/05/09 05:05:43;;;;;;;16.25;7.90;;;9.40;69.20;;;;;;5052207;28;20551;-93
2022/05/09 05:08:13;;;;;;;11.63;7.63;;;9.40;69.30;;;;;;5053514;28;20119;-92
2022/05/09 05:10:41;;;;;;;12.30;8.05;;;9.40;69.30;;;;;;5053371;28;20187;-92
2022/05/09 05:13:09;;;;;;;10.93;7.82;;;9.40;69.40;;;;;;5049860;28;20057;-91
2022/05/09 05:15:36;;;;;;;10.25;7.47;;;9.40;69.50;;;;;;5053210;28;20053;-92
2022/05/09 05:18:03;;;;;;;10.32;7.32;;;9.40;69.60;;;;;;5052211;28;20122;-93
2022/05/09 05:20:30;;;;;;;13.50;7.53;;;9.40;69.60;;;;;;5052096;28;20102;-92
2022/05/09 05:22:57;;;;;;;12.90;7.68;;;9.30;69.70;;;;;;5052628;28;20095;-92
2022/05/09 05:25:28;;;;;;;11.50;7.47;;;9.40;69.80;;;;;;5053613;28;20057;-92
2022/05/09 05:27:57;;;;;;;13.27;7.72;;;9.40;69.80;;;;;;5052754;28;20473;-92
2022/05/09 05:30:24;;;;;;;10.20;7.28;;;9.40;69.90;;;;;;5051498;28;20139;-93
2022/05/09 05:32:51;;;;;;;16.20;7.38;;;9.40;69.90;;;;;;5051753;28;20057;-92
2022/05/09 05:35:22;;;;;;;10.82;8.18;;;9.40;69.90;;;;;;5051931;28;20567;-91
2022/05/09 05:37:50;;;;;;;11.93;7.00;;;9.40;70.00;;;;;;5051817;28;20146;-94
2022/05/09 05:40:17;;;;;;;12.60;8.52;;;9.40;70.10;;;;;;5052113;28;20056;-92
2022/05/09 05:42:45;;;;;;;10.60;7.60;;;9.40;70.10;;;;;;5051696;28;20057;-92
2022/05/09 05:45:14;;;;;;;10.30;7.35;;;9.40;70.20;;;;;;5051739;28;20060;-93
2022/05/09 05:47:41;;;;;;;10.98;7.90;;;9.40;70.20;;;;;;5051658;28;20049;-92
2022/05/09 05:50:11;;;;;;;11.10;7.10;;;9.50;70.30;;;;;;5051587;28;20057;-91
2022/05/09 05:52:58;;;;;;;12.00;8.10;;;9.50;70.40;;;;;;5051619;28;20049;-91
2022/05/09 05:55:25;;;;;;;14.60;8.90;;;9.50;70.40;;;;;;5048957;28;20044;-93
2022/05/09 05:57:53;;;;;;;11.88;7.82;;;9.50;70.50;;;;;;5051768;28;20095;-91
2022/05/09 06:00:22;;;;;;;12.40;7.75;;;9.60;70.60;;;;;;5052293;28;20056;-93
2022/05/09 06:03:08;;;;;;;13.00;7.38;;;9.60;70.60;;;;;;5052321;28;20040;-92
2022/05/09 06:05:35;;;;;;;13.55;7.65;;;9.60;70.60;;;;;;5051137;28;20596;-92
2022/05/09 06:08:03;;;;;;;13.63;7.65;;;9.70;70.60;;;;;;5051220;28;20049;-92
2022/05/09 06:10:30;;;;;;;11.45;7.35;;;9.70;70.60;;;;;;5052194;28;20080;-90
2022/05/09 06:13:16;;;;;;;12.15;7.30;;;9.80;70.60;;;;;;5052715;28;20053;-92
2022/05/09 06:15:43;;;;;;;9.80;6.82;;;9.90;70.70;;;;;;5051336;28;20049;-93
2022/05/09 06:18:14;;;;;;;9.43;7.22;;;9.90;70.70;;;;;;5051875;28;20188;-92
2022/05/09 06:20:43;;;;;;;12.27;7.93;;;9.90;70.70;;;;;;5051780;28;20041;-93
2022/05/09 06:23:13;;;;;;;12.90;7.47;;;10.00;70.70;;;;;;5050959;28;20478;-91
2022/05/09 06:25:43;;;;;;;15.32;8.52;;;10.10;70.60;;;;;;5052154;28;20048;-92
2022/05/09 06:28:10;;;;;;;13.73;8.63;;;10.10;70.70;;;;;;5048519;28;20053;-92
2022/05/09 06:30:37;;;;;;;18.58;9.25;;;10.30;70.90;;;;;;5051737;28;20049;-91
2022/05/09 06:33:04;;;;;;;14.90;8.63;;;10.40;70.80;;;;;;5049332;28;20045;-93
2022/05/09 06:35:31;;;;;;;14.43;7.90;;;10.40;70.90;;;;;;5049640;28;20519;-94
2022/05/09 06:38:05;;;;;;;13.00;9.02;;;10.40;70.80;;;;;;5051900;28;20091;-92
2022/05/09 06:40:33;;;;;;;13.73;9.17;;;10.50;70.80;;;;;;5052487;28;20055;-93
2022/05/09 06:43:01;;;;;;;21.27;10.10;;;10.60;70.80;;;;;;5053043;28;20580;-95
2022/05/09 06:45:28;;;;;;;12.73;8.75;;;10.70;70.90;;;;;;5052608;28;20106;-93
2022/05/09 06:47:56;;;;;;;13.68;8.93;;;10.80;70.90;;;;;;5051474;28;20057;-92
2022/05/09 06:50:33;;;;;;;16.33;9.48;;;10.90;70.90;;;;;;5051338;28;20052;-93
2022/05/09 06:53:02;;;;;;;15.27;10.02;;;10.90;70.90;;;;;;5051326;28;20403;-91
2022/05/09 06:55:48;;;;;;;14.32;9.15;;;11.00;70.90;;;;;;5035713;28;20535;-92
2022/05/09 06:58:18;;;;;;;15.05;10.00;;;11.10;71.00;;;;;;5051430;28;20056;-90
2022/05/09 07:00:46;;;;;;;16.10;9.85;;;11.20;71.00;;;;;;5050895;28;20049;-92
2022/05/09 07:03:13;;;;;;;17.10;10.25;;;11.30;71.00;;;;;;5051120;28;20063;-92
2022/05/09 07:05:43;;;;;;;14.60;10.05;;;11.40;71.00;;;;;;5048978;28;20073;-92
2022/05/09 07:08:11;;;;;;;14.05;10.20;;;11.40;71.00;;;;;;5049753;28;20045;-93
2022/05/09 07:10:39;;;;;;;19.40;10.05;;;11.50;71.00;;;;;;5052699;28;20053;-92
2022/05/09 07:13:06;;;;;;;18.10;10.20;;;11.60;71.00;;;;;;5051472;28;20045;-91
2022/05/09 07:15:34;;;;;;;15.63;9.65;;;11.70;71.00;;;;;;5040880;28;20115;-91
2022/05/09 07:18:02;;;;;;;13.25;9.23;;;11.80;71.00;;;;;;5040313;28;20045;-92
2022/05/09 07:20:32;;;;;;;21.25;10.48;;;11.90;71.00;;;;;;5039110;28;20048;-91
2022/05/09 07:23:11;;;;;;;15.63;9.73;;;11.90;70.90;;;;;;5051435;28;20049;-91
2022/05/09 07:25:42;;;;;;;17.80;10.00;;;12.00;70.90;;;;;;5038925;28;20045;-91
2022/05/09 07:28:23;;;;;;;17.17;9.63;;;12.10;70.90;;;;;;5050765;28;20061;-91
2022/05/09 07:31:03;;;;;;;13.38;8.82;;;12.20;70.90;;;;;;5035457;28;20046;-92
2022/05/09 07:33:51;;;;;;;15.98;9.52;;;12.30;70.80;;;;;;5034305;28;20138;-92
2022/05/09 07:36:24;;;;;;;14.30;8.50;;;12.40;70.80;;;;;;5039339;28;20111;-92
2022/05/09 07:38:52;;;;;;;14.48;8.65;;;12.40;70.70;;;;;;5041407;28;20107;-92
2022/05/09 07:41:19;;;;;;;20.50;10.13;;;12.60;70.60;;;;;;5039603;28;20412;-91
2022/05/09 07:43:45;;;;;;;13.40;8.40;;;12.60;70.60;;;;;;5051578;28;20167;-90
2022/05/09 07:46:12;;;;;;;12.60;8.23;;;12.80;70.50;;;;;;5039266;28;20053;-91
2022/05/09 07:49:00;;;;;;;12.55;8.32;;;12.90;70.50;;;;;;5039696;28;20140;-94
2022/05/09 07:51:27;;;;;;;13.95;8.30;;;12.90;70.30;;;;;;5040561;28;20061;-92
2022/05/09 07:53:54;;;;;;;15.13;8.00;;;13.00;70.20;;;;;;5047201;28;20056;-93
2022/05/09 07:56:21;;;;;;;13.90;8.43;;;13.20;70.10;;;;;;5053384;28;20049;-91
2022/05/09 07:58:48;;;;;;;13.63;8.07;;;13.20;70.00;;;;;;5050792;28;20100;-93
2022/05/09 08:01:15;;;;;;;14.80;8.07;;;13.40;69.80;;;;;;5037848;28;20053;-92
2022/05/09 08:03:43;;;;;;;12.73;7.95;;;13.50;69.70;;;;;;5037805;28;20107;-93
2022/05/09 08:06:10;;;;;;;15.38;7.70;;;13.60;69.50;;;;;;5039933;28;20065;-93
2022/05/09 08:08:38;;;;;;;14.63;7.30;;;13.70;69.40;;;;;;5043085;28;20059;-92
2022/05/09 08:13:58;;;;;;;19.90;8.82;;;13.90;69.10;;;;;;5037558;28;20048;-92
2022/05/09 08:16:29;;;;;;;11.85;6.60;;;14.00;68.90;;;;;;5051394;28;20107;-92
2022/05/09 08:18:56;;;;;;;13.82;6.85;;;14.10;68.70;;;;;;5051337;28;20098;-93
2022/05/09 08:21:23;;;;;;;14.27;6.50;;;14.20;68.60;;;;;;5040840;28;20503;-93
2022/05/09 08:23:51;;;;;;;11.55;6.00;;;14.40;68.40;;;;;;5040401;28;20045;-92
2022/05/09 08:26:21;;;;;;;15.00;6.50;;;14.40;68.30;;;;;;5048977;28;20054;-92
2022/05/09 08:28:56;;;;;;;10.57;6.05;;;14.60;68.10;;;;;;5050437;28;20053;-93
2022/05/09 08:31:23;;;;;;;12.10;6.30;;;14.70;67.90;;;;;;5036581;28;20045;-94
2022/05/09 08:33:52;;;;;;;12.48;6.50;;;14.90;67.80;;;;;;5049316;28;20503;-92
2022/05/09 08:39:08;;;;;;;13.07;6.40;;;15.00;67.40;;;;;;5042592;28;20103;-92
2022/05/09 08:41:49;;;;;;;12.80;5.53;;;15.20;67.20;;;;;;5047122;28;20051;-91
2022/05/09 08:44:36;;;;;;;12.40;5.10;;;15.30;67.00;;;;;;5040716;28;20041;-91
2022/05/09 08:47:33;;;;;;;11.32;5.40;;;15.40;66.90;;;;;;5035215;28;20071;-91
2022/05/09 08:50:13;;;;;;;8.93;4.60;;;15.50;66.60;;;;;;5035636;28;20045;-92
2022/05/09 08:52:49;;;;;;;12.13;5.30;;;15.70;66.50;;;;;;5051108;28;20440;-95
2022/05/09 08:55:32;;;;;;;11.15;5.10;;;15.90;66.30;;;;;;5049524;28;20095;-93
2022/05/09 08:58:11;;;;;;;10.18;5.18;;;16.00;66.10;;;;;;5037911;28;20058;-93
2022/05/09 09:00:39;;;;;;;11.23;5.43;;;16.10;65.80;;;;;;5046895;28;20491;-92
2022/05/09 09:03:15;;;;;;;10.57;4.80;;;16.20;65.60;;;;;;5042985;28;20042;-93
2022/05/09 09:05:46;;;;;;;12.32;5.07;;;16.30;65.40;;;;;;5037824;28;20511;-92
2022/05/09 09:08:30;;;;;;;10.15;4.68;;;16.40;65.20;;;;;;5035998;28;20049;-92
2022/05/09 09:11:18;;;;;;;8.55;4.63;;;16.60;65.00;;;;;;5035555;28;20045;-92
2022/05/09 09:14:13;;;;;;;10.68;5.07;;;16.70;64.70;;;;;;5034356;28;20568;-92
2022/05/09 09:16:43;;;;;;;12.13;4.45;;;16.90;64.40;;;;;;5033657;28;20045;-92
2022/05/09 09:19:22;;;;;;;7.65;3.90;;;16.90;64.20;;;;;;5033522;28;20103;-91
2022/05/09 09:22:13;;;;;;;10.80;4.90;;;17.00;64.00;;;;;;5047578;28;20104;-93
2022/05/09 09:24:43;;;;;;;12.43;4.28;;;17.20;63.70;;;;;;5031851;28;20095;-91
2022/05/09 09:27:41;;;;;;;12.40;4.53;;;17.30;63.60;;;;;;5043259;28;20511;-92
2022/05/09 09:30:15;;;;;;;11.73;3.88;;;17.40;63.30;;;;;;5044071;28;20542;-92
2022/05/09 09:32:44;;;;;;;;;;;17.50;63.20;;;;;;5045105;28;20098;-91
2022/05/09 09:35:26;;;;;;;10.85;4.50;;;17.60;63.00;;;;;;5049760;28;20329;-92
2022/05/09 09:38:05;;;;;;;14.45;4.45;;;17.80;62.80;;;;;;5047578;28;20504;-90
2022/05/09 09:40:33;;;;;;;13.05;4.15;;;17.90;62.60;;;;;;5049554;28;20057;-91
2022/05/09 09:43:00;;;;;;;7.38;3.67;;;18.00;62.40;;;;;;5037281;28;20053;-92
2022/05/09 09:45:36;;;;;;;9.43;4.30;;;18.10;62.20;;;;;;5034548;28;20504;-91
2022/05/09 09:48:07;;;;;;;8.82;3.58;;;18.30;62.00;;;;;;5037382;28;20566;-92
2022/05/09 09:51:00;;;;;;;12.18;3.83;;;18.40;61.70;;;;;;5039956;28;20834;-94
2022/05/09 09:53:29;;;;;;;10.57;4.05;;;18.50;61.50;;;;;;5051555;28;20075;-91
2022/05/09 09:56:03;;;;;;;8.38;3.88;;;18.60;61.30;;;;;;5048259;28;20042;-93
2022/05/09 09:58:30;;;;;;;8.50;3.95;;;18.70;61.10;;;;;;5053957;28;20584;-95
2022/05/09 10:01:23;;;;;;;9.10;3.78;;;18.80;60.90;;;;;;5054294;28;20053;-94
2022/05/09 10:04:25;;;;;;;6.68;2.90;;;18.90;60.60;;;;;;5053748;28;20049;-93
2022/05/09 10:06:59;;;;;;;9.90;3.88;;;19.10;60.40;;;;;;5051395;28;20057;-95
2022/05/09 10:10:10;;;;;;;9.52;3.47;;;19.20;60.20;;;;;;5053844;28;20055;-94
2022/05/09 10:12:46;;;;;;;9.40;3.50;;;19.40;59.90;;;;;;5048959;28;20056;-94
2022/05/09 10:15:38;;;;;;;8.60;3.38;;;19.50;59.70;;;;;;5053406;28;20049;-95
2022/05/09 10:18:23;;;;;;;9.48;3.63;;;19.60;59.50;;;;;;5053077;28;20049;-93
2022/05/09 10:24:47;;;;;;;8.43;3.20;;;19.70;59.30;;;;;;5036974;28;20081;-94
2022/05/09 10:27:06;;;;;;;7.53;3.22;;;19.90;58.80;;;;;;5053163;28;20100;-95
2022/05/09 10:29:38;;;;;;;7.97;3.47;;;20.10;58.50;;;;;;5053445;28;20053;-95
2022/05/09 10:32:27;;;;;;;9.30;3.53;;;20.10;58.30;;;;;;5053359;28;20509;-96
2022/05/09 10:35:22;;;;;;;7.50;3.22;;;20.30;58.20;;;;;;5047992;28;20111;-95
2022/05/09 10:37:58;;;;;;;7.53;3.10;;;20.40;58.00;;;;;;5034715;28;20054;-94
2022/05/09 10:40:30;;;;;;;10.38;3.20;;;20.50;57.80;;;;;;5032342;28;20064;-93
2022/05/09 10:45:51;;;;;;;13.40;3.50;;;20.60;57.40;;;;;;5033070;28;20104;-92
2022/05/09 10:48:22;;;;;;;10.02;3.50;;;20.80;57.30;;;;;;5049659;28;20128;-95
2022/05/09 10:50:55;;;;;;;8.10;3.25;;;20.90;57.10;;;;;;5048364;28;20041;-96
2022/05/09 10:53:39;;;;;;;8.10;3.17;;;21.00;57.00;;;;;;5047427;28;20041;-94
2022/05/09 10:56:13;;;;;;;8.85;3.25;;;21.10;56.80;;;;;;5032272;28;20045;-95
2022/05/09 10:58:47;;;;;;;10.15;3.13;;;21.20;56.60;;;;;;5049391;28;20049;-95
2022/05/09 11:01:24;;;;;;;9.35;2.90;;;21.30;56.40;;;;;;5034003;28;20053;-95
2022/05/09 11:03:53;;;;;;;9.35;3.22;;;21.40;56.30;;;;;;5033856;28;20128;-94
2022/05/09 11:06:56;;;;;;;8.65;3.80;;;21.40;56.10;;;;;;5032733;28;20145;-96
2022/05/09 11:09:38;;;;;;;8.82;3.17;;;21.60;55.90;;;;;;5033096;28;20482;-94
2022/05/09 11:12:21;;;;;;;10.15;3.33;;;21.60;55.80;;;;;;5050346;28;20048;-95
2022/05/09 11:15:15;;;;;;;9.82;3.80;;;21.80;55.70;;;;;;5040686;28;20108;-94
2022/05/09 11:18:20;;;;;;;9.13;3.38;;;21.90;55.60;;;;;;5044745;28;20056;-94
2022/05/09 11:24:09;;;;;;;8.07;3.33;;;22.00;55.30;;;;;;5034066;28;20447;-94
2022/05/09 11:27:04;;;;;;;6.72;3.33;;;22.10;55.20;;;;;;5032284;28;20049;-95
2022/05/09 11:30:08;;;;;;;8.30;3.60;;;22.20;55.10;;;;;;5032191;28;20041;-95
2022/05/09 11:56:50;;;;;;;7.25;3.22;;;22.90;53.70;;;;;;5159372;22;20071;-96
2022/05/09 12:04:45;;;;;;;7.18;3.50;;;23.20;53.20;;;;;;5213146;22;20053;-95
2022/05/09 12:07:24;;;;;;;9.63;4.05;;;23.20;53.10;;;;;;5056754;28;20054;-93
2022/05/09 12:10:16;;;;;;;7.90;3.00;;;23.30;53.00;;;;;;5129637;22;20053;-94
2022/05/09 12:12:43;;;;;;;6.32;3.45;;;23.40;52.80;;;;;;5034981;28;20056;-94
2022/05/09 12:15:17;;;;;;;7.65;3.40;;;23.40;52.70;;;;;;5078649;22;20089;-95
2022/05/09 12:17:51;;;;;;;7.18;3.45;;;23.40;52.60;;;;;;5019456;28;20045;-95
2022/05/09 12:20:25;;;;;;;8.35;3.60;;;23.50;52.50;;;;;;5019109;28;20137;-95
2022/05/09 12:22:56;;;;;;;6.57;3.70;;;23.60;52.20;;;;;;5006669;28;20049;-95
2022/05/09 12:28:05;;;;;;;13.68;3.33;;;23.80;51.90;;;;;;5228133;22;20053;-95
2022/05/09 12:31:05;;;;;;;14.32;3.80;;;23.90;51.80;;;;;;5043941;28;20050;-92
2022/05/09 12:36:13;;;;;;;29.30;4.15;;;24.00;51.40;;;;;;5450102;22;20062;-96
2022/05/09 12:41:25;;;;;;;13.35;3.28;;;24.20;51.00;;;;;;5462913;22;20090;-94
2022/05/09 12:44:00;;;;;;;14.77;3.60;;;24.30;50.90;;;;;;5077455;28;20045;-94
2022/05/09 12:46:37;;;;;;;15.65;3.80;;;24.30;50.70;;;;;;5079259;28;20055;-95
2022/05/09 12:49:07;;;;;;;16.50;3.53;;;24.40;50.60;;;;;;5075425;28;20060;-96
2022/05/09 12:54:13;;;;;;;12.40;3.30;;;24.50;50.20;;;;;;5261155;22;20119;-95
2022/05/09 12:56:49;;;;;;;17.38;3.47;;;24.60;49.90;;;;;;5046697;28;20175;-93
2022/05/09 12:59:18;;;;;;;11.73;2.85;;;24.70;49.70;;;;;;5037650;28;20108;-95
2022/05/09 13:02:00;;;;;;;12.60;3.08;;;24.70;49.50;;;;;;5037562;28;20041;-96
2022/05/09 13:04:49;;;;;;;9.60;2.90;;;24.80;49.30;;;;;;5048480;28;20049;-96
2022/05/09 13:07:17;;;;;;;11.15;3.25;;;24.90;49.10;;;;;;5027451;28;20058;-96
2022/05/09 13:09:55;;;;;;;12.15;2.67;;;24.90;49.00;;;;;;5029326;28;20046;-96
2022/05/09 13:12:38;;;;;;;11.35;2.72;;;25.00;48.70;;;;;;5037275;28;20087;-95
2022/05/09 13:15:10;;;;;;;5.93;2.60;;;25.00;48.50;;;;;;5036150;28;20100;-96
2022/05/09 13:17:48;;;;;;;6.63;2.60;;;25.10;48.30;;;;;;5026599;28;20475;-96
2022/05/09 13:20:22;;;;;;;6.60;2.35;;;25.10;47.90;;;;;;5029645;28;20085;-95
2022/05/09 13:22:54;;;;;;;5.30;2.03;;;25.20;47.60;;;;;;5029248;28;20439;-94
2022/05/09 13:25:30;;;;;;;6.40;2.47;;;25.30;47.50;;;;;;5036512;28;20088;-95
2022/05/09 13:28:02;;;;;;;7.93;2.20;;;25.30;47.20;;;;;;5028352;28;20092;-95
2022/05/09 13:33:31;;;;;;;6.32;2.55;;;25.40;46.90;;;;;;5015587;28;20050;-96
2022/05/09 13:36:03;;;;;;;13.18;2.70;;;25.40;46.80;;;;;;5025804;28;20076;-96
2022/05/09 13:38:49;;;;;;;7.10;2.60;;;25.40;46.70;;;;;;5023133;28;20046;-96
2022/05/09 13:41:24;;;;;;;8.68;2.10;;;25.50;46.50;;;;;;5031565;28;20518;-96
2022/05/09 13:43:56;;;;;;;6.57;2.40;;;25.50;46.30;;;;;;5040913;28;20048;-92
2022/05/09 13:46:35;;;;;;;4.40;1.90;;;25.50;46.10;;;;;;5041622;28;20080;-94
2022/05/09 13:49:05;;;;;;;5.53;2.42;;;25.60;46.00;;;;;;5038946;28;20053;-95
2022/05/09 13:51:36;;;;;;;5.05;2.33;;;25.60;45.90;;;;;;5034929;28;20050;-95
2022/05/09 13:54:08;;;;;;;6.05;2.00;;;25.60;45.80;;;;;;5035971;28;20049;-95
2022/05/09 13:56:38;;;;;;;6.47;2.22;;;25.60;45.70;;;;;;5045018;28;20053;-92
2022/05/09 13:59:43;;;;;;;5.97;1.92;;;25.60;45.60;;;;;;5044425;28;20507;-94
2022/05/09 14:02:12;;;;;;;7.65;2.45;;;25.60;45.60;;;;;;5033652;28;20470;-95
2022/05/09 14:04:42;;;;;;;4.13;1.85;;;25.60;45.60;;;;;;5052657;28;20561;-94
2022/05/09 14:10:25;;;;;;;6.63;2.40;;;25.60;45.40;;;;;;5053442;28;20095;-93
2022/05/09 14:12:53;;;;;;;6.78;2.10;;;25.60;45.20;;;;;;5039637;28;20049;-95
2022/05/09 14:15:24;;;;;;;8.00;2.25;;;25.60;45.20;;;;;;5047927;28;20099;-94
2022/05/09 14:18:03;;;;;;;6.43;1.90;;;25.60;45.30;;;;;;5044278;28;20439;-95
2022/05/09 14:20:37;;;;;;;5.47;1.92;;;25.70;45.20;;;;;;5052644;28;20083;-94
2022/05/09 14:23:06;;;;;;;5.43;1.85;;;25.70;45.20;;;;;;5046102;28;20460;-94